Terminal Aerodrome Forecast
Issued by NWS

Home | Current Version | Previous Version | Text Only | Print | Product List | Glossary On
Versions: 1 2 3 4 5 6 7 8 9 10 11 12 13
000
FTUS43 KDTX 230520
TAFMBS
TAF
KMBS 230520Z 2306/2406 19008KT P6SM BKN040 OVC120
     FM231100 VRB05KT 6SM -SHRA BKN008 OVC025
     FM231900 11010KT 5SM RA BR OVC010
     FM232200 14010KT 2SM RA BR OVC008
     FM240300 16014G20KT 5SM -SHRA BR OVC015=

USA.gov is the U.S. government's official web portal to all federal, state and local government web resources and services.